sensor_id;sensor_type;location;lat;lon;timestamp;temperature;humidity
55830;DHT22;41759;53.330;6.002;2024-02-26T00:01:44;2.50;99.90
55830;DHT22;41759;53.330;6.002;2024-02-26T00:04:11;4.40;99.90
55830;DHT22;41759;53.330;6.002;2024-02-26T00:06:38;3.40;99.90
55830;DHT22;41759;53.330;6.002;2024-02-26T00:09:07;4.40;99.90
55830;DHT22;41759;53.330;6.002;2024-02-26T00:11:35;4.00;99.90
55830;DHT22;41759;53.330;6.002;2024-02-26T00:14:01;5.20;99.90
55830;DHT22;41759;53.330;6.002;2024-02-26T00:16:27;3.50;99.90
55830;DHT22;41759;53.330;6.002;2024-02-26T00:18:53;3.60;99.90
55830;DHT22;41759;53.330;6.002;2024-02-26T00:21:18;3.60;99.90
55830;DHT22;41759;53.330;6.002;2024-02-26T00:23:44;3.80;99.90
55830;DHT22;41759;53.330;6.002;2024-02-26T00:26:10;3.70;99.90
55830;DHT22;41759;53.330;6.002;2024-02-26T00:28:37;3.80;99.90
55830;DHT22;41759;53.330;6.002;2024-02-26T00:31:03;3.90;99.90
55830;DHT22;41759;53.330;6.002;2024-02-26T00:33:29;3.90;99.90
55830;DHT22;41759;53.330;6.002;2024-02-26T00:35:55;4.30;99.90
55830;DHT22;41759;53.330;6.002;2024-02-26T00:38:21;5.30;99.90
55830;DHT22;41759;53.330;6.002;2024-02-26T00:40:46;4.00;99.90
55830;DHT22;41759;53.330;6.002;2024-02-26T00:43:12;4.00;99.90
55830;DHT22;41759;53.330;6.002;2024-02-26T00:45:38;4.00;99.90
55830;DHT22;41759;53.330;6.002;2024-02-26T00:48:05;4.00;99.90
55830;DHT22;41759;53.330;6.002;2024-02-26T00:50:31;4.00;99.90
55830;DHT22;41759;53.330;6.002;2024-02-26T00:52:57;2.70;99.90
55830;DHT22;41759;53.330;6.002;2024-02-26T00:55:23;3.90;99.90
55830;DHT22;41759;53.330;6.002;2024-02-26T00:57:49;5.50;99.90
55830;DHT22;41759;53.330;6.002;2024-02-26T01:00:15;4.00;99.90
55830;DHT22;41759;53.330;6.002;2024-02-26T01:02:42;4.00;99.90
55830;DHT22;41759;53.330;6.002;2024-02-26T01:05:08;4.00;99.90
55830;DHT22;41759;53.330;6.002;2024-02-26T01:07:38;5.30;99.90
55830;DHT22;41759;53.330;6.002;2024-02-26T01:10:08;4.50;99.90
55830;DHT22;41759;53.330;6.002;2024-02-26T01:12:35;4.00;99.90
55830;DHT22;41759;53.330;6.002;2024-02-26T01:15:01;4.00;99.90
55830;DHT22;41759;53.330;6.002;2024-02-26T01:17:28;4.00;99.90
55830;DHT22;41759;53.330;6.002;2024-02-26T01:19:54;4.70;99.90
55830;DHT22;41759;53.330;6.002;2024-02-26T01:22:20;4.00;99.90
55830;DHT22;41759;53.330;6.002;2024-02-26T01:24:46;4.00;99.90
55830;DHT22;41759;53.330;6.002;2024-02-26T01:27:11;5.60;99.90
55830;DHT22;41759;53.330;6.002;2024-02-26T01:29:38;4.90;99.90
55830;DHT22;41759;53.330;6.002;2024-02-26T01:32:04;4.00;99.90
55830;DHT22;41759;53.330;6.002;2024-02-26T01:34:31;4.00;99.90
55830;DHT22;41759;53.330;6.002;2024-02-26T01:36:57;5.30;99.90
55830;DHT22;41759;53.330;6.002;2024-02-26T01:39:22;3.70;99.90
55830;DHT22;41759;53.330;6.002;2024-02-26T01:41:48;4.50;99.90
55830;DHT22;41759;53.330;6.002;2024-02-26T01:44:14;3.90;99.90
55830;DHT22;41759;53.330;6.002;2024-02-26T01:46:40;4.00;99.90
55830;DHT22;41759;53.330;6.002;2024-02-26T01:49:06;4.00;99.90
55830;DHT22;41759;53.330;6.002;2024-02-26T01:51:35;5.20;99.90
55830;DHT22;41759;53.330;6.002;2024-02-26T01:54:02;5.10;99.90
55830;DHT22;41759;53.330;6.002;2024-02-26T01:56:29;4.00;99.90
55830;DHT22;41759;53.330;6.002;2024-02-26T01:58:56;5.30;99.90
55830;DHT22;41759;53.330;6.002;2024-02-26T02:01:25;5.30;99.90
55830;DHT22;41759;53.330;6.002;2024-02-26T02:03:51;5.10;99.90
55830;DHT22;41759;53.330;6.002;2024-02-26T02:06:17;4.40;99.90
55830;DHT22;41759;53.330;6.002;2024-02-26T02:08:43;3.10;99.90
55830;DHT22;41759;53.330;6.002;2024-02-26T02:11:09;5.00;99.90
55830;DHT22;41759;53.330;6.002;2024-02-26T02:13:37;5.10;99.90
55830;DHT22;41759;53.330;6.002;2024-02-26T02:16:03;3.90;99.90
55830;DHT22;41759;53.330;6.002;2024-02-26T02:18:29;3.90;99.90
55830;DHT22;41759;53.330;6.002;2024-02-26T02:20:55;5.00;99.90
55830;DHT22;41759;53.330;6.002;2024-02-26T02:23:22;5.10;99.90
55830;DHT22;41759;53.330;6.002;2024-02-26T02:25:48;5.40;99.90
55830;DHT22;41759;53.330;6.002;2024-02-26T02:28:14;3.80;99.90
55830;DHT22;41759;53.330;6.002;2024-02-26T02:30:40;5.00;99.90
55830;DHT22;41759;53.330;6.002;2024-02-26T02:33:06;5.30;99.90
55830;DHT22;41759;53.330;6.002;2024-02-26T02:35:32;4.30;99.90
55830;DHT22;41759;53.330;6.002;2024-02-26T02:37:58;4.90;99.90
55830;DHT22;41759;53.330;6.002;2024-02-26T02:40:27;5.20;99.90
55830;DHT22;41759;53.330;6.002;2024-02-26T02:42:52;3.90;99.90
55830;DHT22;41759;53.330;6.002;2024-02-26T02:45:18;5.30;99.90
55830;DHT22;41759;53.330;6.002;2024-02-26T02:47:44;3.90;99.90
55830;DHT22;41759;53.330;6.002;2024-02-26T02:50:09;3.90;99.90
55830;DHT22;41759;53.330;6.002;2024-02-26T02:52:36;3.90;99.90
55830;DHT22;41759;53.330;6.002;2024-02-26T02:55:02;3.90;99.90
55830;DHT22;41759;53.330;6.002;2024-02-26T02:57:30;3.90;99.90
55830;DHT22;41759;53.330;6.002;2024-02-26T02:59:56;3.90;99.90
55830;DHT22;41759;53.330;6.002;2024-02-26T03:02:22;5.40;99.90
55830;DHT22;41759;53.330;6.002;2024-02-26T03:04:50;3.90;99.90
55830;DHT22;41759;53.330;6.002;2024-02-26T03:07:16;4.50;99.90
55830;DHT22;41759;53.330;6.002;2024-02-26T03:09:42;4.00;99.90
55830;DHT22;41759;53.330;6.002;2024-02-26T03:12:07;4.00;99.90
55830;DHT22;41759;53.330;6.002;2024-02-26T03:14:33;3.90;99.90
55830;DHT22;41759;53.330;6.002;2024-02-26T03:16:59;3.90;99.90
55830;DHT22;41759;53.330;6.002;2024-02-26T03:19:24;3.90;99.90
55830;DHT22;41759;53.330;6.002;2024-02-26T03:21:50;4.60;99.90
55830;DHT22;41759;53.330;6.002;2024-02-26T03:24:16;3.90;99.90
55830;DHT22;41759;53.330;6.002;2024-02-26T03:26:42;4.00;99.90
55830;DHT22;41759;53.330;6.002;2024-02-26T03:29:08;4.00;99.90
55830;DHT22;41759;53.330;6.002;2024-02-26T03:31:34;4.00;99.90
55830;DHT22;41759;53.330;6.002;2024-02-26T03:34:00;4.60;99.90
55830;DHT22;41759;53.330;6.002;2024-02-26T03:36:25;4.10;99.90
55830;DHT22;41759;53.330;6.002;2024-02-26T03:38:51;5.40;99.90
55830;DHT22;41759;53.330;6.002;2024-02-26T03:41:17;4.10;99.90
55830;DHT22;41759;53.330;6.002;2024-02-26T03:43:42;4.20;99.90
55830;DHT22;41759;53.330;6.002;2024-02-26T03:46:08;4.30;99.90
55830;DHT22;41759;53.330;6.002;2024-02-26T03:48:40;5.70;99.90
55830;DHT22;41759;53.330;6.002;2024-02-26T03:51:06;4.30;99.90
55830;DHT22;41759;53.330;6.002;2024-02-26T03:53:31;4.40;99.90
55830;DHT22;41759;53.330;6.002;2024-02-26T03:55:57;6.00;99.90
55830;DHT22;41759;53.330;6.002;2024-02-26T03:58:23;6.20;99.90
55830;DHT22;41759;53.330;6.002;2024-02-26T04:00:48;4.60;99.90
55830;DHT22;41759;53.330;6.002;2024-02-26T04:03:14;4.60;99.90
55830;DHT22;41759;53.330;6.002;2024-02-26T04:05:40;5.80;99.90
55830;DHT22;41759;53.330;6.002;2024-02-26T04:08:06;5.80;99.90
55830;DHT22;41759;53.330;6.002;2024-02-26T04:10:33;4.60;99.90
55830;DHT22;41759;53.330;6.002;2024-02-26T04:13:05;4.60;99.90
55830;DHT22;41759;53.330;6.002;2024-02-26T04:15:32;4.60;99.90
55830;DHT22;41759;53.330;6.002;2024-02-26T04:17:58;4.80;99.90
55830;DHT22;41759;53.330;6.002;2024-02-26T04:20:24;5.10;99.90
55830;DHT22;41759;53.330;6.002;2024-02-26T04:22:50;5.60;99.90
55830;DHT22;41759;53.330;6.002;2024-02-26T04:25:15;5.90;99.90
55830;DHT22;41759;53.330;6.002;2024-02-26T04:27:41;5.70;99.90
55830;DHT22;41759;53.330;6.002;2024-02-26T04:30:07;6.00;99.90
55830;DHT22;41759;53.330;6.002;2024-02-26T04:32:33;4.60;99.90
55830;DHT22;41759;53.330;6.002;2024-02-26T04:35:01;5.70;99.90
55830;DHT22;41759;53.330;6.002;2024-02-26T04:37:27;5.20;99.90
55830;DHT22;41759;53.330;6.002;2024-02-26T04:40:00;4.60;99.90
55830;DHT22;41759;53.330;6.002;2024-02-26T04:42:26;4.90;99.90
55830;DHT22;41759;53.330;6.002;2024-02-26T04:44:52;6.30;99.90
55830;DHT22;41759;53.330;6.002;2024-02-26T04:47:18;4.60;99.90
55830;DHT22;41759;53.330;6.002;2024-02-26T04:49:43;4.60;99.90
55830;DHT22;41759;53.330;6.002;2024-02-26T04:52:09;4.60;99.90
55830;DHT22;41759;53.330;6.002;2024-02-26T04:54:35;5.70;99.90
55830;DHT22;41759;53.330;6.002;2024-02-26T04:57:01;4.60;99.90
55830;DHT22;41759;53.330;6.002;2024-02-26T04:59:27;4.20;99.90
55830;DHT22;41759;53.330;6.002;2024-02-26T05:01:52;4.70;99.90
55830;DHT22;41759;53.330;6.002;2024-02-26T05:04:18;4.70;99.90
55830;DHT22;41759;53.330;6.002;2024-02-26T05:06:44;4.70;99.90
55830;DHT22;41759;53.330;6.002;2024-02-26T05:09:10;6.10;99.90
55830;DHT22;41759;53.330;6.002;2024-02-26T05:11:36;6.10;99.90
55830;DHT22;41759;53.330;6.002;2024-02-26T05:14:02;5.10;99.90
55830;DHT22;41759;53.330;6.002;2024-02-26T05:16:28;5.00;99.90
55830;DHT22;41759;53.330;6.002;2024-02-26T05:18:55;4.50;99.90
55830;DHT22;41759;53.330;6.002;2024-02-26T05:21:21;4.50;99.90
55830;DHT22;41759;53.330;6.002;2024-02-26T05:23:47;5.70;99.90
55830;DHT22;41759;53.330;6.002;2024-02-26T05:26:19;5.20;99.90
55830;DHT22;41759;53.330;6.002;2024-02-26T05:28:49;4.40;99.90
55830;DHT22;41759;53.330;6.002;2024-02-26T05:31:15;4.50;99.90
55830;DHT22;41759;53.330;6.002;2024-02-26T05:33:41;5.60;99.90
55830;DHT22;41759;53.330;6.002;2024-02-26T05:36:07;6.00;99.90
55830;DHT22;41759;53.330;6.002;2024-02-26T05:38:32;4.30;99.90
55830;DHT22;41759;53.330;6.002;2024-02-26T05:40:59;4.40;99.90
55830;DHT22;41759;53.330;6.002;2024-02-26T05:43:28;5.90;99.90
55830;DHT22;41759;53.330;6.002;2024-02-26T05:45:53;4.40;99.90
55830;DHT22;41759;53.330;6.002;2024-02-26T05:48:19;4.40;99.90
55830;DHT22;41759;53.330;6.002;2024-02-26T05:50:46;4.70;99.90
55830;DHT22;41759;53.330;6.002;2024-02-26T05:53:12;5.70;99.90
55830;DHT22;41759;53.330;6.002;2024-02-26T05:55:38;4.40;99.90
55830;DHT22;41759;53.330;6.002;2024-02-26T05:58:04;4.10;99.90
55830;DHT22;41759;53.330;6.002;2024-02-26T06:00:30;4.40;99.90
55830;DHT22;41759;53.330;6.002;2024-02-26T06:02:56;4.50;99.90
55830;DHT22;41759;53.330;6.002;2024-02-26T06:05:22;5.30;99.90
55830;DHT22;41759;53.330;6.002;2024-02-26T06:07:48;5.10;99.90
55830;DHT22;41759;53.330;6.002;2024-02-26T06:10:13;4.30;99.90
55830;DHT22;41759;53.330;6.002;2024-02-26T06:12:39;5.20;99.90
55830;DHT22;41759;53.330;6.002;2024-02-26T06:15:06;4.30;99.90
55830;DHT22;41759;53.330;6.002;2024-02-26T06:17:32;5.30;99.90
55830;DHT22;41759;53.330;6.002;2024-02-26T06:19:59;4.90;99.90
55830;DHT22;41759;53.330;6.002;2024-02-26T06:22:25;4.30;99.90
55830;DHT22;41759;53.330;6.002;2024-02-26T06:24:51;4.40;99.90
55830;DHT22;41759;53.330;6.002;2024-02-26T06:27:17;4.30;99.90
55830;DHT22;41759;53.330;6.002;2024-02-26T06:29:43;4.30;99.90
55830;DHT22;41759;53.330;6.002;2024-02-26T06:32:08;5.00;99.90
55830;DHT22;41759;53.330;6.002;2024-02-26T06:34:34;5.00;99.90
55830;DHT22;41759;53.330;6.002;2024-02-26T06:37:00;5.60;99.90
55830;DHT22;41759;53.330;6.002;2024-02-26T06:39:26;4.30;99.90
55830;DHT22;41759;53.330;6.002;2024-02-26T06:41:52;4.40;99.90
55830;DHT22;41759;53.330;6.002;2024-02-26T06:44:23;4.30;99.90
55830;DHT22;41759;53.330;6.002;2024-02-26T06:46:50;6.10;99.90
55830;DHT22;41759;53.330;6.002;2024-02-26T06:49:16;6.10;99.90
55830;DHT22;41759;53.330;6.002;2024-02-26T06:51:41;5.50;99.90
55830;DHT22;41759;53.330;6.002;2024-02-26T06:54:07;5.80;99.90
55830;DHT22;41759;53.330;6.002;2024-02-26T06:56:33;4.40;99.90
55830;DHT22;41759;53.330;6.002;2024-02-26T06:58:59;4.40;99.90
55830;DHT22;41759;53.330;6.002;2024-02-26T07:01:24;4.40;99.90
55830;DHT22;41759;53.330;6.002;2024-02-26T07:03:50;5.60;99.90
55830;DHT22;41759;53.330;6.002;2024-02-26T07:06:16;4.50;99.90
55830;DHT22;41759;53.330;6.002;2024-02-26T07:08:42;5.30;99.90
55830;DHT22;41759;53.330;6.002;2024-02-26T07:11:08;4.40;99.90
55830;DHT22;41759;53.330;6.002;2024-02-26T07:13:34;4.80;99.90
55830;DHT22;41759;53.330;6.002;2024-02-26T07:16:00;5.10;99.90
55830;DHT22;41759;53.330;6.002;2024-02-26T07:18:25;4.40;99.90
55830;DHT22;41759;53.330;6.002;2024-02-26T07:20:51;4.50;99.90
55830;DHT22;41759;53.330;6.002;2024-02-26T07:23:17;4.80;99.90
55830;DHT22;41759;53.330;6.002;2024-02-26T07:25:43;4.40;99.90
55830;DHT22;41759;53.330;6.002;2024-02-26T07:28:09;4.40;99.90
55830;DHT22;41759;53.330;6.002;2024-02-26T07:30:35;6.00;99.90
55830;DHT22;41759;53.330;6.002;2024-02-26T07:33:01;4.60;99.90
55830;DHT22;41759;53.330;6.002;2024-02-26T07:35:26;4.50;99.90
55830;DHT22;41759;53.330;6.002;2024-02-26T07:37:53;5.40;99.90
55830;DHT22;41759;53.330;6.002;2024-02-26T07:40:19;4.50;99.90
55830;DHT22;41759;53.330;6.002;2024-02-26T07:42:45;5.20;99.90
55830;DHT22;41759;53.330;6.002;2024-02-26T07:45:11;4.60;99.90
55830;DHT22;41759;53.330;6.002;2024-02-26T07:47:36;5.80;99.90
55830;DHT22;41759;53.330;6.002;2024-02-26T07:50:07;4.60;99.90
55830;DHT22;41759;53.330;6.002;2024-02-26T07:52:33;4.60;99.90
55830;DHT22;41759;53.330;6.002;2024-02-26T07:54:59;4.70;99.90
55830;DHT22;41759;53.330;6.002;2024-02-26T07:57:24;4.70;99.90
55830;DHT22;41759;53.330;6.002;2024-02-26T07:59:50;4.80;99.90
55830;DHT22;41759;53.330;6.002;2024-02-26T08:02:16;4.80;99.90
55830;DHT22;41759;53.330;6.002;2024-02-26T08:04:42;4.80;99.90
55830;DHT22;41759;53.330;6.002;2024-02-26T08:07:08;4.90;99.90
55830;DHT22;41759;53.330;6.002;2024-02-26T08:09:33;5.40;99.90
55830;DHT22;41759;53.330;6.002;2024-02-26T08:11:59;4.90;99.90
55830;DHT22;41759;53.330;6.002;2024-02-26T08:14:25;5.00;99.90
55830;DHT22;41759;53.330;6.002;2024-02-26T08:16:51;5.00;99.90
55830;DHT22;41759;53.330;6.002;2024-02-26T08:19:16;5.10;99.90
55830;DHT22;41759;53.330;6.002;2024-02-26T08:21:43;6.30;99.90
55830;DHT22;41759;53.330;6.002;2024-02-26T08:24:09;5.10;99.90
55830;DHT22;41759;53.330;6.002;2024-02-26T08:26:35;5.50;99.90
55830;DHT22;41759;53.330;6.002;2024-02-26T08:29:01;5.10;99.90
55830;DHT22;41759;53.330;6.002;2024-02-26T08:31:27;5.10;99.90
55830;DHT22;41759;53.330;6.002;2024-02-26T08:34:04;5.20;99.90
55830;DHT22;41759;53.330;6.002;2024-02-26T08:36:32;5.20;99.90
55830;DHT22;41759;53.330;6.002;2024-02-26T08:38:58;6.30;99.90
55830;DHT22;41759;53.330;6.002;2024-02-26T08:41:24;5.40;99.90
55830;DHT22;41759;53.330;6.002;2024-02-26T08:43:50;6.40;99.90
55830;DHT22;41759;53.330;6.002;2024-02-26T08:46:15;6.70;99.90
55830;DHT22;41759;53.330;6.002;2024-02-26T08:48:41;6.80;99.90
55830;DHT22;41759;53.330;6.002;2024-02-26T08:51:08;6.80;99.90
55830;DHT22;41759;53.330;6.002;2024-02-26T08:53:35;5.40;99.90
55830;DHT22;41759;53.330;6.002;2024-02-26T08:56:01;6.80;99.90
55830;DHT22;41759;53.330;6.002;2024-02-26T08:58:28;5.50;99.90
55830;DHT22;41759;53.330;6.002;2024-02-26T09:00:54;5.60;99.90
55830;DHT22;41759;53.330;6.002;2024-02-26T09:03:20;5.60;99.90
55830;DHT22;41759;53.330;6.002;2024-02-26T09:05:46;5.80;99.90
55830;DHT22;41759;53.330;6.002;2024-02-26T09:08:12;6.00;99.90
55830;DHT22;41759;53.330;6.002;2024-02-26T09:10:38;5.70;99.90
55830;DHT22;41759;53.330;6.002;2024-02-26T09:13:04;5.70;99.90
55830;DHT22;41759;53.330;6.002;2024-02-26T09:15:30;6.30;99.90
55830;DHT22;41759;53.330;6.002;2024-02-26T09:17:56;5.80;99.90
55830;DHT22;41759;53.330;6.002;2024-02-26T09:20:22;5.80;99.90
55830;DHT22;41759;53.330;6.002;2024-02-26T09:22:49;5.80;99.90
55830;DHT22;41759;53.330;6.002;2024-02-26T09:25:15;5.90;99.90
55830;DHT22;41759;53.330;6.002;2024-02-26T09:27:43;7.00;99.90
55830;DHT22;41759;53.330;6.002;2024-02-26T09:30:12;6.80;99.90
55830;DHT22;41759;53.330;6.002;2024-02-26T09:32:39;6.10;99.90
55830;DHT22;41759;53.330;6.002;2024-02-26T09:35:08;6.10;99.90
55830;DHT22;41759;53.330;6.002;2024-02-26T09:37:34;6.20;99.90
55830;DHT22;41759;53.330;6.002;2024-02-26T09:40:03;6.20;99.90
55830;DHT22;41759;53.330;6.002;2024-02-26T09:42:31;6.30;99.90
55830;DHT22;41759;53.330;6.002;2024-02-26T09:45:00;6.30;99.90
55830;DHT22;41759;53.330;6.002;2024-02-26T09:47:31;6.70;99.90
55830;DHT22;41759;53.330;6.002;2024-02-26T09:49:57;6.80;99.90
55830;DHT22;41759;53.330;6.002;2024-02-26T09:52:25;6.40;99.90
55830;DHT22;41759;53.330;6.002;2024-02-26T09:54:54;6.40;99.90
55830;DHT22;41759;53.330;6.002;2024-02-26T09:57:20;6.40;99.90
55830;DHT22;41759;53.330;6.002;2024-02-26T09:59:51;6.50;99.90
55830;DHT22;41759;53.330;6.002;2024-02-26T10:02:20;6.50;99.90
55830;DHT22;41759;53.330;6.002;2024-02-26T10:04:47;6.90;99.90
55830;DHT22;41759;53.330;6.002;2024-02-26T10:07:16;7.00;99.90
55830;DHT22;41759;53.330;6.002;2024-02-26T10:09:42;6.50;99.90
55830;DHT22;41759;53.330;6.002;2024-02-26T10:12:10;6.50;99.90
55830;DHT22;41759;53.330;6.002;2024-02-26T10:14:37;6.70;99.90
55830;DHT22;41759;53.330;6.002;2024-02-26T10:17:03;6.60;99.90
55830;DHT22;41759;53.330;6.002;2024-02-26T10:19:32;6.80;99.90
55830;DHT22;41759;53.330;6.002;2024-02-26T10:21:59;6.60;99.90
55830;DHT22;41759;53.330;6.002;2024-02-26T10:24:26;6.60;99.90
55830;DHT22;41759;53.330;6.002;2024-02-26T10:26:54;7.10;99.90
55830;DHT22;41759;53.330;6.002;2024-02-26T10:29:20;6.60;99.90
55830;DHT22;41759;53.330;6.002;2024-02-26T10:31:46;6.70;99.90
55830;DHT22;41759;53.330;6.002;2024-02-26T10:34:12;7.70;99.90
55830;DHT22;41759;53.330;6.002;2024-02-26T10:36:38;6.80;99.90
55830;DHT22;41759;53.330;6.002;2024-02-26T10:39:07;6.70;99.90
55830;DHT22;41759;53.330;6.002;2024-02-26T10:41:33;6.70;99.90
55830;DHT22;41759;53.330;6.002;2024-02-26T10:43:59;6.70;99.90
55830;DHT22;41759;53.330;6.002;2024-02-26T10:46:26;6.70;99.90
55830;DHT22;41759;53.330;6.002;2024-02-26T10:48:53;8.10;99.90
55830;DHT22;41759;53.330;6.002;2024-02-26T10:51:37;6.80;99.90
55830;DHT22;41759;53.330;6.002;2024-02-26T10:54:04;7.10;99.90
55830;DHT22;41759;53.330;6.002;2024-02-26T10:56:34;7.60;99.90
55830;DHT22;41759;53.330;6.002;2024-02-26T10:59:00;6.90;99.90
55830;DHT22;41759;53.330;6.002;2024-02-26T11:01:27;6.80;99.90
55830;DHT22;41759;53.330;6.002;2024-02-26T11:03:55;7.80;99.90
55830;DHT22;41759;53.330;6.002;2024-02-26T11:06:26;6.80;99.90
55830;DHT22;41759;53.330;6.002;2024-02-26T11:08:52;6.80;99.90
55830;DHT22;41759;53.330;6.002;2024-02-26T11:11:20;6.80;99.90
55830;DHT22;41759;53.330;6.002;2024-02-26T11:13:47;6.80;99.90
55830;DHT22;41759;53.330;6.002;2024-02-26T11:16:21;6.80;99.90
55830;DHT22;41759;53.330;6.002;2024-02-26T11:18:48;6.70;99.90
55830;DHT22;41759;53.330;6.002;2024-02-26T11:21:18;6.70;99.90
55830;DHT22;41759;53.330;6.002;2024-02-26T11:23:48;6.80;99.90
55830;DHT22;41759;53.330;6.002;2024-02-26T11:26:16;6.80;99.90
55830;DHT22;41759;53.330;6.002;2024-02-26T11:28:44;6.90;99.90
55830;DHT22;41759;53.330;6.002;2024-02-26T11:31:10;6.90;99.90
55830;DHT22;41759;53.330;6.002;2024-02-26T11:33:36;6.90;99.90
55830;DHT22;41759;53.330;6.002;2024-02-26T11:36:09;6.90;99.90
55830;DHT22;41759;53.330;6.002;2024-02-26T11:38:35;6.90;99.90
55830;DHT22;41759;53.330;6.002;2024-02-26T11:41:02;6.80;99.90
55830;DHT22;41759;53.330;6.002;2024-02-26T11:43:53;7.00;99.90
55830;DHT22;41759;53.330;6.002;2024-02-26T11:51:54;7.10;99.90
55830;DHT22;41759;53.330;6.002;2024-02-26T11:59:47;7.30;99.90
55830;DHT22;41759;53.330;6.002;2024-02-26T12:02:45;7.10;99.90
55830;DHT22;41759;53.330;6.002;2024-02-26T12:05:21;7.10;99.90
55830;DHT22;41759;53.330;6.002;2024-02-26T12:07:53;7.10;99.90
55830;DHT22;41759;53.330;6.002;2024-02-26T12:10:25;7.10;99.90
55830;DHT22;41759;53.330;6.002;2024-02-26T12:13:15;7.00;99.90
55830;DHT22;41759;53.330;6.002;2024-02-26T12:15:45;7.80;99.90
55830;DHT22;41759;53.330;6.002;2024-02-26T12:18:18;7.00;99.90
55830;DHT22;41759;53.330;6.002;2024-02-26T12:20:44;8.20;99.90
55830;DHT22;41759;53.330;6.002;2024-02-26T12:23:14;7.00;99.90
55830;DHT22;41759;53.330;6.002;2024-02-26T12:25:40;7.00;99.90
55830;DHT22;41759;53.330;6.002;2024-02-26T12:28:07;5.60;99.90
55830;DHT22;41759;53.330;6.002;2024-02-26T12:30:33;7.00;99.90
55830;DHT22;41759;53.330;6.002;2024-02-26T12:33:00;7.40;99.90
55830;DHT22;41759;53.330;6.002;2024-02-26T12:35:27;8.00;99.90
55830;DHT22;41759;53.330;6.002;2024-02-26T12:37:56;7.70;99.90
55830;DHT22;41759;53.330;6.002;2024-02-26T12:40:22;6.80;99.90
55830;DHT22;41759;53.330;6.002;2024-02-26T12:42:47;6.70;99.90
55830;DHT22;41759;53.330;6.002;2024-02-26T12:45:14;6.70;99.90
55830;DHT22;41759;53.330;6.002;2024-02-26T12:47:45;6.60;99.90
55830;DHT22;41759;53.330;6.002;2024-02-26T12:50:12;8.10;99.90
55830;DHT22;41759;53.330;6.002;2024-02-26T12:52:44;6.60;99.90
55830;DHT22;41759;53.330;6.002;2024-02-26T12:55:13;7.80;99.90
55830;DHT22;41759;53.330;6.002;2024-02-26T12:57:41;6.50;99.90
55830;DHT22;41759;53.330;6.002;2024-02-26T13:00:12;6.50;99.90
55830;DHT22;41759;53.330;6.002;2024-02-26T13:02:40;6.50;99.90
55830;DHT22;41759;53.330;6.002;2024-02-26T13:05:08;6.50;99.90
55830;DHT22;41759;53.330;6.002;2024-02-26T13:07:40;6.50;99.90
55830;DHT22;41759;53.330;6.002;2024-02-26T13:10:06;6.50;99.90
55830;DHT22;41759;53.330;6.002;2024-02-26T13:12:32;6.50;99.90
55830;DHT22;41759;53.330;6.002;2024-02-26T13:14:59;6.40;99.90
55830;DHT22;41759;53.330;6.002;2024-02-26T13:17:25;6.50;99.90
55830;DHT22;41759;53.330;6.002;2024-02-26T13:19:53;6.40;99.90
55830;DHT22;41759;53.330;6.002;2024-02-26T13:22:21;7.50;99.90
55830;DHT22;41759;53.330;6.002;2024-02-26T13:24:54;6.50;99.90
55830;DHT22;41759;53.330;6.002;2024-02-26T13:27:23;6.50;99.90
55830;DHT22;41759;53.330;6.002;2024-02-26T13:30:03;7.80;99.90
55830;DHT22;41759;53.330;6.002;2024-02-26T13:32:32;6.40;99.90
55830;DHT22;41759;53.330;6.002;2024-02-26T13:35:08;6.50;99.90
55830;DHT22;41759;53.330;6.002;2024-02-26T13:37:35;6.50;99.90
55830;DHT22;41759;53.330;6.002;2024-02-26T13:40:11;7.10;99.90
55830;DHT22;41759;53.330;6.002;2024-02-26T13:42:40;6.40;99.90
55830;DHT22;41759;53.330;6.002;2024-02-26T13:45:06;6.30;99.90
55830;DHT22;41759;53.330;6.002;2024-02-26T13:47:33;6.30;99.90
55830;DHT22;41759;53.330;6.002;2024-02-26T13:49:59;6.60;99.90
55830;DHT22;41759;53.330;6.002;2024-02-26T13:52:26;6.30;99.90
55830;DHT22;41759;53.330;6.002;2024-02-26T13:54:52;7.10;99.90
55830;DHT22;41759;53.330;6.002;2024-02-26T13:57:19;6.30;99.90
55830;DHT22;41759;53.330;6.002;2024-02-26T13:59:45;6.40;99.90
55830;DHT22;41759;53.330;6.002;2024-02-26T14:02:10;6.40;99.90
55830;DHT22;41759;53.330;6.002;2024-02-26T14:04:37;7.70;99.90
55830;DHT22;41759;53.330;6.002;2024-02-26T14:07:03;7.70;99.90
55830;DHT22;41759;53.330;6.002;2024-02-26T14:09:29;6.30;99.90
55830;DHT22;41759;53.330;6.002;2024-02-26T14:11:55;7.40;99.90
55830;DHT22;41759;53.330;6.002;2024-02-26T14:14:21;6.30;99.90
55830;DHT22;41759;53.330;6.002;2024-02-26T14:16:47;6.30;99.90
55830;DHT22;41759;53.330;6.002;2024-02-26T14:19:12;6.30;99.90
55830;DHT22;41759;53.330;6.002;2024-02-26T14:21:38;6.30;99.90
55830;DHT22;41759;53.330;6.002;2024-02-26T14:24:05;7.90;99.90
55830;DHT22;41759;53.330;6.002;2024-02-26T14:26:30;6.30;99.90
55830;DHT22;41759;53.330;6.002;2024-02-26T14:28:56;6.30;99.90
55830;DHT22;41759;53.330;6.002;2024-02-26T14:31:22;7.70;99.90
55830;DHT22;41759;53.330;6.002;2024-02-26T14:33:54;6.30;99.90
55830;DHT22;41759;53.330;6.002;2024-02-26T14:36:22;6.30;99.90
55830;DHT22;41759;53.330;6.002;2024-02-26T14:38:48;7.40;99.90
55830;DHT22;41759;53.330;6.002;2024-02-26T14:41:14;6.30;99.90
55830;DHT22;41759;53.330;6.002;2024-02-26T14:43:40;6.30;99.90
55830;DHT22;41759;53.330;6.002;2024-02-26T14:46:06;6.60;99.90
55830;DHT22;41759;53.330;6.002;2024-02-26T14:48:32;6.30;99.90
55830;DHT22;41759;53.330;6.002;2024-02-26T14:50:58;6.30;99.90
55830;DHT22;41759;53.330;6.002;2024-02-26T14:53:24;6.30;99.90
55830;DHT22;41759;53.330;6.002;2024-02-26T14:55:50;6.30;99.90
55830;DHT22;41759;53.330;6.002;2024-02-26T14:58:16;6.40;99.90
55830;DHT22;41759;53.330;6.002;2024-02-26T15:00:42;6.30;99.90
55830;DHT22;41759;53.330;6.002;2024-02-26T15:03:08;7.10;99.90
55830;DHT22;41759;53.330;6.002;2024-02-26T15:05:34;6.30;99.90
55830;DHT22;41759;53.330;6.002;2024-02-26T15:07:59;6.60;99.90
55830;DHT22;41759;53.330;6.002;2024-02-26T15:10:25;6.30;99.90
55830;DHT22;41759;53.330;6.002;2024-02-26T15:12:52;6.30;99.90
55830;DHT22;41759;53.330;6.002;2024-02-26T15:15:22;6.30;99.90
55830;DHT22;41759;53.330;6.002;2024-02-26T15:17:48;7.20;99.90
55830;DHT22;41759;53.330;6.002;2024-02-26T15:20:17;6.30;99.90
55830;DHT22;41759;53.330;6.002;2024-02-26T15:22:43;6.30;99.90
55830;DHT22;41759;53.330;6.002;2024-02-26T15:25:09;6.30;99.90
55830;DHT22;41759;53.330;6.002;2024-02-26T15:27:35;6.30;99.90
55830;DHT22;41759;53.330;6.002;2024-02-26T15:30:01;6.30;99.90
55830;DHT22;41759;53.330;6.002;2024-02-26T15:32:27;6.30;99.90
55830;DHT22;41759;53.330;6.002;2024-02-26T15:34:53;6.70;99.90
55830;DHT22;41759;53.330;6.002;2024-02-26T15:37:19;6.20;99.90
55830;DHT22;41759;53.330;6.002;2024-02-26T15:39:45;6.20;99.90
55830;DHT22;41759;53.330;6.002;2024-02-26T15:42:12;6.30;99.90
55830;DHT22;41759;53.330;6.002;2024-02-26T15:44:38;6.30;99.90
55830;DHT22;41759;53.330;6.002;2024-02-26T15:47:04;6.20;99.90
55830;DHT22;41759;53.330;6.002;2024-02-26T15:49:31;6.20;99.90
55830;DHT22;41759;53.330;6.002;2024-02-26T15:51:57;6.20;99.90
55830;DHT22;41759;53.330;6.002;2024-02-26T15:54:23;6.20;99.90